createdAt,value
2023-04-28T00:00:07.678Z,10.50
2023-04-28T00:02:36.134Z,6.85
2023-04-28T00:05:06.882Z,8.60
2023-04-28T00:07:35.280Z,10.50
2023-04-28T00:10:03.690Z,10.10
2023-04-28T00:12:32.008Z,11.65
2023-04-28T00:15:00.318Z,9.40
2023-04-28T00:17:28.715Z,8.90
2023-04-28T00:19:57.635Z,9.80
2023-04-28T00:22:27.250Z,10.95
2023-04-28T00:24:55.514Z,9.00
2023-04-28T00:27:23.924Z,10.75
2023-04-28T00:29:53.072Z,11.93
2023-04-28T00:32:21.444Z,9.30
2023-04-28T00:34:49.757Z,8.52
2023-04-28T00:37:17.990Z,10.18
2023-04-28T00:39:47.926Z,9.82
2023-04-28T00:42:16.366Z,9.38
2023-04-28T00:44:44.636Z,12.05
2023-04-28T00:47:12.922Z,11.43
2023-04-28T00:49:41.295Z,14.63
2023-04-28T00:52:09.806Z,16.55
2023-04-28T00:54:38.792Z,10.65
2023-04-28T00:57:08.633Z,11.43
2023-04-28T00:59:36.985Z,12.27
2023-04-28T01:02:06.484Z,10.70
2023-04-28T01:04:34.945Z,10.43
2023-04-28T01:07:04.071Z,10.70
2023-04-28T01:09:32.333Z,9.38
2023-04-28T01:12:00.592Z,12.15
2023-04-28T01:14:30.256Z,7.30
2023-04-28T01:16:58.826Z,8.13
2023-04-28T01:19:27.988Z,7.68
2023-04-28T01:21:56.297Z,7.88
2023-04-28T01:24:26.131Z,7.25
2023-04-28T01:26:54.478Z,7.90
2023-04-28T01:29:22.745Z,8.10
2023-04-28T01:31:51.059Z,7.35
2023-04-28T01:34:19.849Z,7.05
2023-04-28T01:36:48.887Z,7.53
2023-04-28T01:39:17.449Z,7.20
2023-04-28T01:41:47.070Z,7.22
2023-04-28T01:44:15.534Z,8.43
2023-04-28T01:46:43.994Z,7.97
2023-04-28T01:49:12.277Z,7.35
2023-04-28T01:51:41.708Z,8.35
2023-04-28T01:54:10.073Z,7.40
2023-04-28T01:56:38.381Z,6.30
2023-04-28T01:59:08.176Z,6.70
2023-04-28T02:01:36.496Z,7.72
2023-04-28T02:04:04.837Z,7.82
2023-04-28T02:06:33.128Z,7.85
2023-04-28T02:09:01.485Z,7.70
2023-04-28T02:11:29.835Z,8.23
2023-04-28T02:13:58.076Z,8.85
2023-04-28T02:16:27.820Z,7.95
2023-04-28T02:18:56.500Z,9.07
2023-04-28T02:21:26.374Z,8.82
2023-04-28T02:23:54.698Z,8.90
2023-04-28T02:26:22.947Z,8.88
2023-04-28T02:28:51.373Z,8.10
2023-04-28T02:31:19.672Z,9.30
2023-04-28T02:33:49.320Z,8.60
2023-04-28T02:36:17.744Z,8.95
2023-04-28T02:38:46.367Z,9.02
2023-04-28T02:41:15.464Z,9.00
2023-04-28T02:43:43.783Z,8.63
2023-04-28T02:46:12.774Z,8.75
2023-04-28T02:48:41.651Z,8.52
2023-04-28T02:51:11.929Z,8.88
2023-04-28T02:53:40.184Z,9.20
2023-04-28T02:56:09.034Z,9.95
2023-04-28T02:58:37.311Z,8.45
2023-04-28T03:01:06.282Z,7.95
2023-04-28T03:03:34.802Z,7.25
2023-04-28T03:06:03.262Z,7.50
2023-04-28T03:08:33.201Z,7.47
2023-04-28T03:11:01.520Z,7.90
2023-04-28T03:13:30.519Z,9.65
2023-04-28T03:15:58.878Z,7.30
2023-04-28T03:18:27.183Z,8.60
2023-04-28T03:20:55.858Z,8.35
2023-04-28T03:23:24.182Z,7.22
2023-04-28T03:25:54.011Z,7.90
2023-04-28T03:28:22.294Z,9.50
2023-04-28T03:30:50.651Z,8.02
2023-04-28T03:33:18.960Z,8.05
2023-04-28T03:35:47.660Z,7.55
2023-04-28T03:38:16.454Z,4.90
2023-04-28T03:40:44.721Z,5.13
2023-04-28T03:43:14.581Z,8.00
2023-04-28T03:45:42.846Z,8.80
2023-04-28T03:48:11.375Z,7.38
2023-04-28T03:50:40.957Z,7.80
2023-04-28T03:53:15.496Z,7.93
2023-04-28T03:55:43.730Z,9.00
2023-04-28T03:58:12.052Z,9.63
2023-04-28T04:00:41.760Z,11.02
2023-04-28T04:03:10.378Z,10.73
2023-04-28T04:05:40.945Z,11.95
2023-04-28T04:08:09.391Z,10.88
2023-04-28T04:10:37.667Z,7.68
2023-04-28T04:13:05.925Z,9.43
2023-04-28T04:15:34.308Z,10.95
2023-04-28T04:18:03.977Z,9.65
2023-04-28T04:20:32.289Z,10.23
2023-04-28T04:23:01.573Z,9.57
2023-04-28T04:25:29.807Z,11.23
2023-04-28T04:27:58.156Z,9.43
2023-04-28T04:30:26.536Z,11.30
2023-04-28T04:32:54.879Z,11.68
2023-04-28T04:35:24.465Z,9.95
2023-04-28T04:37:52.759Z,10.57
2023-04-28T04:40:21.025Z,9.82
2023-04-28T04:42:49.233Z,10.60
2023-04-28T04:45:17.705Z,12.77
2023-04-28T04:47:46.154Z,8.10
2023-04-28T04:50:14.945Z,7.18
2023-04-28T04:52:44.554Z,7.43
2023-04-28T04:55:12.872Z,6.57
2023-04-28T04:57:41.204Z,7.85
2023-04-28T05:00:10.778Z,6.15
2023-04-28T05:02:39.275Z,5.78
2023-04-28T05:05:19.693Z,6.00
2023-04-28T05:07:50.768Z,5.80
2023-04-28T05:10:19.103Z,6.23
2023-04-28T05:12:49.211Z,5.80
2023-04-28T05:15:17.845Z,5.10
2023-04-28T05:17:46.333Z,4.65
2023-04-28T05:20:15.112Z,4.40
2023-04-28T05:22:43.329Z,5.60
2023-04-28T05:25:12.927Z,4.20
2023-04-28T05:27:41.252Z,5.53
2023-04-28T05:30:10.879Z,4.40
2023-04-28T05:32:39.830Z,4.97
2023-04-28T05:35:09.342Z,4.05
2023-04-28T05:37:38.216Z,3.78
2023-04-28T05:40:08.034Z,3.72
2023-04-28T05:42:37.721Z,3.33
2023-04-28T05:45:08.067Z,3.50
2023-04-28T05:47:36.761Z,3.25
2023-04-28T05:50:05.653Z,2.80
2023-04-28T05:52:34.039Z,2.60
2023-04-28T05:55:02.451Z,2.70
2023-04-28T05:57:33.977Z,2.80
2023-04-28T06:00:13.229Z,2.80
2023-04-28T06:02:41.687Z,2.80
2023-04-28T06:05:10.733Z,2.70
2023-04-28T06:07:39.100Z,2.63
2023-04-28T06:10:08.530Z,3.00
2023-04-28T06:12:36.790Z,2.30
2023-04-28T06:15:06.603Z,3.05
2023-04-28T06:17:36.387Z,2.60
2023-04-28T06:20:05.239Z,2.57
2023-04-28T06:22:33.481Z,3.22
2023-04-28T06:25:01.775Z,3.25
2023-04-28T06:27:32.769Z,2.60
2023-04-28T06:30:01.092Z,2.95
2023-04-28T06:32:29.474Z,2.55
2023-04-28T06:34:59.331Z,2.92
2023-04-28T06:37:27.892Z,3.00
2023-04-28T06:39:56.130Z,3.55
2023-04-28T06:42:26.026Z,4.10
2023-04-28T06:44:55.137Z,3.50
2023-04-28T06:47:23.430Z,3.00
2023-04-28T06:49:51.725Z,5.35
2023-04-28T06:52:27.126Z,3.40
2023-04-28T06:55:01.383Z,2.78
2023-04-28T06:57:29.756Z,3.10
2023-04-28T06:59:58.049Z,2.88
2023-04-28T07:02:26.555Z,2.95
2023-04-28T07:04:55.405Z,2.70
2023-04-28T07:07:25.014Z,2.97
2023-04-28T07:09:53.620Z,2.78
2023-04-28T07:12:22.248Z,2.63
2023-04-28T07:14:51.678Z,2.60
2023-04-28T07:17:20.040Z,2.80
2023-04-28T07:19:49.958Z,2.45
2023-04-28T07:22:18.602Z,3.05
2023-04-28T07:24:48.255Z,2.70
2023-04-28T07:27:17.225Z,2.70
2023-04-28T07:29:45.570Z,2.30
2023-04-28T07:32:14.009Z,2.35
2023-04-28T07:34:42.399Z,2.05
2023-04-28T07:37:11.965Z,2.55
2023-04-28T07:39:41.708Z,2.33
2023-04-28T07:42:11.546Z,2.55
2023-04-28T07:44:39.826Z,2.28
2023-04-28T07:47:08.107Z,2.45
2023-04-28T07:49:36.562Z,2.35
2023-04-28T07:52:04.997Z,2.38
2023-04-28T07:54:35.123Z,2.75
2023-04-28T07:57:06.372Z,3.03
2023-04-28T07:59:36.272Z,3.03
2023-04-28T08:02:04.597Z,3.10
2023-04-28T08:04:35.297Z,3.40
2023-04-28T08:07:03.911Z,8.45
2023-04-28T08:09:32.630Z,3.10
2023-04-28T08:12:00.908Z,13.15
2023-04-28T08:14:29.559Z,4.20
2023-04-28T08:16:59.527Z,3.47
2023-04-28T08:19:27.807Z,6.43
2023-04-28T08:21:56.103Z,6.20
2023-04-28T08:24:24.379Z,6.97
2023-04-28T08:26:52.675Z,2.80
2023-04-28T08:29:20.936Z,2.80
2023-04-28T08:31:49.242Z,2.70
2023-04-28T08:34:19.031Z,2.58
2023-04-28T08:36:47.614Z,2.80
2023-04-28T08:39:16.058Z,2.63
2023-04-28T08:41:44.344Z,2.00
2023-04-28T08:44:13.089Z,2.50
2023-04-28T08:46:42.845Z,2.15
2023-04-28T08:49:16.763Z,2.40
2023-04-28T08:51:48.554Z,2.10
2023-04-28T08:54:26.196Z,2.20
2023-04-28T08:56:55.653Z,2.20
2023-04-28T08:59:23.960Z,1.80
2023-04-28T09:01:52.735Z,1.92
2023-04-28T09:04:22.110Z,1.92
2023-04-28T09:06:52.127Z,1.70
2023-04-28T09:09:25.310Z,1.40
2023-04-28T09:11:55.552Z,1.33
2023-04-28T09:14:24.114Z,1.40
2023-04-28T09:16:52.804Z,1.20
2023-04-28T09:19:21.400Z,1.25
2023-04-28T09:21:55.613Z,1.77
2023-04-28T09:24:28.188Z,1.83
2023-04-28T09:26:56.466Z,1.40
2023-04-28T09:29:24.812Z,1.60
2023-04-28T09:31:53.445Z,1.10
2023-04-28T09:34:21.973Z,1.30
2023-04-28T09:36:50.704Z,1.08
2023-04-28T09:39:31.590Z,1.30
2023-04-28T09:42:03.734Z,1.27
2023-04-28T09:44:32.153Z,1.60
2023-04-28T09:47:01.248Z,1.50
2023-04-28T09:49:29.630Z,1.50
2023-04-28T09:52:13.716Z,1.60
2023-04-28T09:54:43.355Z,1.58
2023-04-28T09:57:12.037Z,1.43
2023-04-28T09:59:40.281Z,1.55
2023-04-28T10:02:25.924Z,1.50
2023-04-28T10:04:57.206Z,1.27
2023-04-28T10:07:25.899Z,1.30
2023-04-28T10:09:56.412Z,1.20
2023-04-28T10:14:54.547Z,1.38
2023-04-28T10:17:25.510Z,1.10
2023-04-28T10:19:55.000Z,1.50
2023-04-28T10:22:34.385Z,2.13
2023-04-28T10:25:14.144Z,2.13
2023-04-28T10:27:43.757Z,1.50
2023-04-28T10:30:26.412Z,1.50
2023-04-28T10:33:25.466Z,1.48
2023-04-28T10:35:53.977Z,1.73
2023-04-28T10:38:22.845Z,1.40
2023-04-28T10:40:53.796Z,1.60
2023-04-28T10:43:37.863Z,1.55
2023-04-28T10:46:10.122Z,1.40
2023-04-28T10:48:57.974Z,1.60
2023-04-28T10:51:30.255Z,2.03
2023-04-28T10:54:28.177Z,2.30
2023-04-28T10:57:22.841Z,1.70
2023-04-28T10:59:51.762Z,1.55
2023-04-28T11:02:43.886Z,1.48
2023-04-28T11:05:18.818Z,1.20
2023-04-28T11:08:33.297Z,1.40
2023-04-28T11:11:24.449Z,1.50
2023-04-28T11:13:55.295Z,1.50
2023-04-28T11:16:25.871Z,2.13
2023-04-28T11:21:25.245Z,1.23
2023-04-28T11:23:53.578Z,1.05
2023-04-28T11:26:23.663Z,0.93
2023-04-28T11:28:54.697Z,1.10
2023-04-28T11:31:24.518Z,1.00
2023-04-28T11:33:55.562Z,1.27
2023-04-28T11:36:29.353Z,1.10
2023-04-28T11:38:58.055Z,1.00
2023-04-28T11:41:26.897Z,1.00
2023-04-28T11:43:56.507Z,1.15
2023-04-28T11:46:25.652Z,1.03
2023-04-28T11:49:04.556Z,1.00
2023-04-28T11:51:38.060Z,1.20
2023-04-28T11:54:07.913Z,0.90
2023-04-28T11:56:39.605Z,0.98
2023-04-28T11:59:11.313Z,0.70
2023-04-28T12:01:47.853Z,0.90
2023-04-28T12:04:18.084Z,0.70
2023-04-28T12:06:46.474Z,0.70
2023-04-28T12:09:18.868Z,0.70
2023-04-28T12:11:57.451Z,0.60
2023-04-28T12:14:27.219Z,0.73
2023-04-28T12:16:55.528Z,0.60
2023-04-28T12:19:23.789Z,0.90
2023-04-28T12:22:03.098Z,0.85
2023-04-28T12:24:33.227Z,0.77
2023-04-28T12:27:18.430Z,0.77
2023-04-28T12:29:48.715Z,0.80
2023-04-28T12:32:17.468Z,0.60
2023-04-28T12:34:46.992Z,0.70
2023-04-28T12:37:15.513Z,0.80
2023-04-28T12:39:44.202Z,0.70
2023-04-28T12:42:12.666Z,0.60
2023-04-28T12:44:41.056Z,0.70
2023-04-28T12:47:11.812Z,0.80
2023-04-28T12:49:40.161Z,0.73
2023-04-28T12:52:08.410Z,1.15
2023-04-28T12:54:36.794Z,0.80
2023-04-28T12:57:06.018Z,0.77
2023-04-28T12:59:34.347Z,0.80
2023-04-28T13:02:02.864Z,0.80
2023-04-28T13:04:33.047Z,0.60
2023-04-28T13:07:02.136Z,0.60
2023-04-28T13:09:30.612Z,1.00
2023-04-28T13:12:03.586Z,0.80
2023-04-28T13:14:32.801Z,0.93
2023-04-28T13:17:01.608Z,0.93
2023-04-28T13:19:30.596Z,1.20
2023-04-28T13:22:00.236Z,1.15
2023-04-28T13:24:28.502Z,1.47
2023-04-28T13:26:56.775Z,1.02
2023-04-28T13:29:25.040Z,1.60
2023-04-28T13:31:53.403Z,1.20
2023-04-28T13:34:21.704Z,1.20
2023-04-28T13:36:50.984Z,1.13
2023-04-28T13:39:22.229Z,1.23
2023-04-28T13:41:50.814Z,1.00
2023-04-28T13:44:19.266Z,1.30
2023-04-28T13:46:47.655Z,1.40
2023-04-28T13:49:15.946Z,1.20
2023-04-28T13:51:45.523Z,1.30
2023-04-28T13:54:13.981Z,1.20
2023-04-28T13:56:43.568Z,1.30
2023-04-28T13:59:12.155Z,0.90
2023-04-28T14:01:40.509Z,1.40
2023-04-28T14:04:09.036Z,1.35
2023-04-28T14:06:38.213Z,1.23
2023-04-28T14:09:06.598Z,1.17
2023-04-28T14:11:34.819Z,1.10
2023-04-28T14:14:05.298Z,1.30
2023-04-28T14:19:01.692Z,0.98
2023-04-28T14:21:29.935Z,0.90
2023-04-28T14:23:58.278Z,0.80
2023-04-28T14:26:26.542Z,1.10
2023-04-28T14:28:55.199Z,0.82
2023-04-28T14:31:24.979Z,2.08
2023-04-28T14:33:53.282Z,1.10
2023-04-28T14:36:21.542Z,1.00
2023-04-28T14:38:49.843Z,1.02
2023-04-28T14:41:18.077Z,0.98
2023-04-28T14:43:46.493Z,0.85
2023-04-28T14:46:14.845Z,0.50
2023-04-28T14:48:44.588Z,0.75
2023-04-28T14:51:12.911Z,0.65
2023-04-28T14:53:41.944Z,0.70
2023-04-28T14:56:18.765Z,0.63
2023-04-28T14:58:47.692Z,0.68
2023-04-28T15:01:16.049Z,0.80
2023-04-28T15:03:46.082Z,0.85
2023-04-28T15:06:14.562Z,0.60
2023-04-28T15:08:42.770Z,0.70
2023-04-28T15:11:11.190Z,0.70
2023-04-28T15:13:40.998Z,0.80
2023-04-28T15:16:10.836Z,0.65
2023-04-28T15:18:39.456Z,0.70
2023-04-28T15:21:09.427Z,1.10
2023-04-28T15:23:37.712Z,0.75
2023-04-28T15:26:06.671Z,0.77
2023-04-28T15:28:35.293Z,0.93
2023-04-28T15:31:04.917Z,0.95
2023-04-28T15:33:33.876Z,1.47
2023-04-28T15:36:02.188Z,1.05
2023-04-28T15:38:32.008Z,0.70
2023-04-28T15:41:00.267Z,0.80
2023-04-28T15:43:28.526Z,1.77
2023-04-28T15:45:56.984Z,1.10
2023-04-28T15:48:25.400Z,1.08
2023-04-28T15:50:53.708Z,1.20
2023-04-28T15:53:22.254Z,1.00
2023-04-28T15:55:51.859Z,0.70
2023-04-28T15:58:20.885Z,1.30
2023-04-28T16:00:49.151Z,1.45
2023-04-28T16:03:17.603Z,1.48
2023-04-28T16:05:46.249Z,2.15
2023-04-28T16:08:14.734Z,2.35
2023-04-28T16:10:43.022Z,1.52
2023-04-28T16:13:12.739Z,1.27
2023-04-28T16:15:41.854Z,1.60
2023-04-28T16:18:10.374Z,1.00
2023-04-28T16:20:39.115Z,1.15
2023-04-28T16:23:07.706Z,1.17
2023-04-28T16:25:36.478Z,1.42
2023-04-28T16:28:05.142Z,1.67
2023-04-28T16:30:35.236Z,2.35
2023-04-28T16:33:03.707Z,1.38
2023-04-28T16:35:31.966Z,1.30
2023-04-28T16:38:00.390Z,2.25
2023-04-28T16:40:28.894Z,1.10
2023-04-28T16:42:57.525Z,1.00
2023-04-28T16:45:25.828Z,0.93
2023-04-28T16:47:55.486Z,1.15
2023-04-28T16:50:23.743Z,1.00
2023-04-28T16:52:51.990Z,1.05
2023-04-28T16:55:20.222Z,1.00
2023-04-28T16:57:48.506Z,1.77
2023-04-28T17:00:17.570Z,1.15
2023-04-28T17:02:46.080Z,1.70
2023-04-28T17:05:17.820Z,1.25
2023-04-28T17:07:46.090Z,1.10
2023-04-28T17:10:14.439Z,1.00
2023-04-28T17:12:45.504Z,1.08
2023-04-28T17:15:15.220Z,1.05
2023-04-28T17:17:43.621Z,1.30
2023-04-28T17:20:16.665Z,1.10
2023-04-28T17:22:46.963Z,1.10
2023-04-28T17:25:16.052Z,1.83
2023-04-28T17:27:44.513Z,1.48
2023-04-28T17:30:13.299Z,0.93
2023-04-28T17:32:41.614Z,0.80
2023-04-28T17:35:10.600Z,1.02
2023-04-28T17:37:39.048Z,0.70
2023-04-28T17:40:10.484Z,0.57
2023-04-28T17:42:38.757Z,0.57
2023-04-28T17:45:08.064Z,0.50
2023-04-28T17:47:36.516Z,0.82
2023-04-28T17:50:06.053Z,1.25
2023-04-28T17:52:34.368Z,0.50
2023-04-28T17:55:02.608Z,0.60
2023-04-28T17:57:33.117Z,0.70
2023-04-28T18:02:29.946Z,0.57
2023-04-28T18:04:58.368Z,0.60
2023-04-28T18:07:27.492Z,0.70
2023-04-28T18:09:57.187Z,0.88
2023-04-28T18:12:26.218Z,1.08
2023-04-28T18:14:57.715Z,0.80
2023-04-28T18:17:26.250Z,1.00
2023-04-28T18:19:56.820Z,1.20
2023-04-28T18:22:25.302Z,0.90
2023-04-28T18:24:54.342Z,1.40
2023-04-28T18:27:22.675Z,1.23
2023-04-28T18:29:51.035Z,1.60
2023-04-28T18:32:20.765Z,2.42
2023-04-28T18:34:49.586Z,1.25
2023-04-28T18:37:18.035Z,4.55
2023-04-28T18:39:46.367Z,10.25
2023-04-28T18:42:14.963Z,1.33
2023-04-28T18:44:43.191Z,1.15
2023-04-28T18:47:12.801Z,1.40
2023-04-28T18:49:42.718Z,1.38
2023-04-28T18:52:11.035Z,1.70
2023-04-28T18:54:39.375Z,1.52
2023-04-28T18:57:07.765Z,1.70
2023-04-28T18:59:36.079Z,1.50
2023-04-28T19:02:04.696Z,1.30
2023-04-28T19:04:33.089Z,1.20
2023-04-28T19:07:02.904Z,4.38
2023-04-28T19:09:31.293Z,1.17
2023-04-28T19:11:59.513Z,0.98
2023-04-28T19:14:27.782Z,1.60
2023-04-28T19:16:56.029Z,1.38
2023-04-28T19:19:24.401Z,1.40
2023-04-28T19:21:52.657Z,1.40
2023-04-28T19:24:22.454Z,1.42
2023-04-28T19:26:50.740Z,1.08
2023-04-28T19:29:20.085Z,1.10
2023-04-28T19:31:48.924Z,0.93
2023-04-28T19:34:18.154Z,1.23
2023-04-28T19:36:46.435Z,1.40
2023-04-28T19:39:16.434Z,1.13
2023-04-28T19:41:47.696Z,1.42
2023-04-28T19:44:16.757Z,3.80
2023-04-28T19:46:46.274Z,2.58
2023-04-28T19:49:14.703Z,1.90
2023-04-28T19:51:42.988Z,1.20
2023-04-28T19:54:11.238Z,1.40
2023-04-28T19:56:39.561Z,1.38
2023-04-28T19:59:09.503Z,1.40
2023-04-28T20:01:41.867Z,1.10
2023-04-28T20:04:10.737Z,1.00
2023-04-28T20:06:39.877Z,1.27
2023-04-28T20:09:09.659Z,1.50
2023-04-28T20:11:38.120Z,1.30
2023-04-28T20:14:06.374Z,1.05
2023-04-28T20:16:36.703Z,1.10
2023-04-28T20:19:05.044Z,0.90
2023-04-28T20:21:35.085Z,1.00
2023-04-28T20:24:03.331Z,0.88
2023-04-28T20:26:31.685Z,1.10
2023-04-28T20:29:00.317Z,1.20
2023-04-28T20:31:28.665Z,1.20
2023-04-28T20:33:58.613Z,1.00
2023-04-28T20:36:27.408Z,0.77
2023-04-28T20:38:55.751Z,0.90
2023-04-28T20:41:23.958Z,0.80
2023-04-28T20:43:54.423Z,0.80
2023-04-28T20:46:22.707Z,6.18
2023-04-28T20:48:50.954Z,0.70
2023-04-28T20:51:20.599Z,1.20
2023-04-28T20:53:48.821Z,1.10
2023-04-28T20:56:17.082Z,1.13
2023-04-28T20:58:46.530Z,1.10
2023-04-28T21:01:14.799Z,1.30
2023-04-28T21:03:43.525Z,1.48
2023-04-28T21:06:11.919Z,3.28
2023-04-28T21:08:41.874Z,1.65
2023-04-28T21:11:12.911Z,2.30
2023-04-28T21:13:42.682Z,2.80
2023-04-28T21:16:17.636Z,30.05
2023-04-28T21:18:49.160Z,2.90
2023-04-28T21:21:18.274Z,5.55
2023-04-28T21:23:47.950Z,42.10
2023-04-28T21:26:16.531Z,21.53
2023-04-28T21:28:44.782Z,3.50
2023-04-28T21:31:13.568Z,7.45
2023-04-28T21:33:41.830Z,3.70
2023-04-28T21:36:10.165Z,3.67
2023-04-28T21:38:39.004Z,1.70
2023-04-28T21:41:08.782Z,3.67
2023-04-28T21:43:37.280Z,3.00
2023-04-28T21:46:05.795Z,2.95
2023-04-28T21:48:34.740Z,4.30
2023-04-28T21:51:02.983Z,4.75
2023-04-28T21:53:33.470Z,4.50
2023-04-28T21:56:01.837Z,3.80
2023-04-28T21:58:31.448Z,2.22
2023-04-28T22:01:00.310Z,5.20
2023-04-28T22:03:28.941Z,6.05
2023-04-28T22:05:58.125Z,5.93
2023-04-28T22:08:26.685Z,6.88
2023-04-28T22:10:54.907Z,6.90
2023-04-28T22:13:23.540Z,13.93
2023-04-28T22:15:53.301Z,3.50
2023-04-28T22:18:21.719Z,10.80
2023-04-28T22:20:50.449Z,2.65
2023-04-28T22:23:18.738Z,8.27
2023-04-28T22:25:47.049Z,3.67
2023-04-28T22:28:15.447Z,6.20
2023-04-28T22:30:43.696Z,28.80
2023-04-28T22:33:13.370Z,43.40
2023-04-28T22:35:41.767Z,7.50
2023-04-28T22:38:10.012Z,9.57
2023-04-28T22:40:38.260Z,10.60
2023-04-28T22:43:06.593Z,5.00
2023-04-28T22:45:34.877Z,6.57
2023-04-28T22:48:03.222Z,4.72
2023-04-28T22:50:32.851Z,3.88
2023-04-28T22:53:01.096Z,2.00
2023-04-28T22:55:29.806Z,2.38
2023-04-28T22:57:58.599Z,3.45
2023-04-28T23:00:26.862Z,4.68
2023-04-28T23:02:55.304Z,1.70
2023-04-28T23:05:23.599Z,3.42
2023-04-28T23:07:53.231Z,1.15
2023-04-28T23:10:21.524Z,2.13
2023-04-28T23:12:49.750Z,1.92
2023-04-28T23:15:17.990Z,2.72
2023-04-28T23:17:46.447Z,1.20
2023-04-28T23:20:15.209Z,2.78
2023-04-28T23:22:43.468Z,2.13
2023-04-28T23:25:13.258Z,2.25
2023-04-28T23:27:41.551Z,3.42
2023-04-28T23:30:11.020Z,1.92
2023-04-28T23:32:39.596Z,1.83
2023-04-28T23:35:08.405Z,1.77
2023-04-28T23:37:36.926Z,3.92
2023-04-28T23:40:05.986Z,1.98
2023-04-28T23:42:35.819Z,1.75
2023-04-28T23:45:04.440Z,1.75
2023-04-28T23:47:33.027Z,1.63
2023-04-28T23:50:01.319Z,1.27
2023-04-28T23:52:29.818Z,3.47
2023-04-28T23:54:58.694Z,1.58
2023-04-28T23:57:27.483Z,3.47
2023-04-28T23:59:57.468Z,1.45
